Time;durP1;ratioP1;P1;durP2;ratioP2;P2;SDS_P1;SDS_P2;PMS_P1;PMS_P2;Temp;Humidity;BMP_temperature;BMP_pressure;BME280_temperature;BME280_humidity;BME280_pressure;Samples;Min_cycle;Max_cycle;Signal;HPM_P1;HPM_P2
2021/04/21 00:00:02;;;;;;;3.40;3.20;;;9.20;79.60;;;;;;5102662;28;20193;-69
2021/04/21 00:02:28;;;;;;;3.50;3.30;;;9.20;80.00;;;;;;5103623;28;20173;-70
2021/04/21 00:04:57;;;;;;;3.47;3.27;;;9.10;80.20;;;;;;5097313;28;20175;-68
2021/04/21 00:07:24;;;;;;;3.53;3.23;;;9.10;80.10;;;;;;5099486;28;20607;-68
2021/04/21 00:09:53;;;;;;;5.13;3.63;;;9.10;80.20;;;;;;5094835;28;20183;-70
2021/04/21 00:12:22;;;;;;;3.37;3.17;;;9.10;80.20;;;;;;5102287;28;20204;-69
2021/04/21 00:14:50;;;;;;;3.70;3.50;;;9.10;80.70;;;;;;5101791;28;20173;-68
2021/04/21 00:17:19;;;;;;;5.23;3.53;;;9.10;80.50;;;;;;5100262;28;20186;-69
2021/04/21 00:19:45;;;;;;;3.53;3.27;;;9.00;80.60;;;;;;5092549;28;20174;-69
2021/04/21 00:22:15;;;;;;;3.63;3.33;;;9.00;80.70;;;;;;5100449;28;20181;-68
2021/04/21 00:24:42;;;;;;;3.73;3.53;;;9.00;80.60;;;;;;5098940;28;20186;-68
2021/04/21 00:27:09;;;;;;;3.23;3.03;;;9.00;80.90;;;;;;5101347;28;20244;-68
2021/04/21 00:29:39;;;;;;;3.50;3.30;;;9.00;80.90;;;;;;5102002;28;20189;-68
2021/04/21 00:32:06;;;;;;;3.37;3.07;;;8.90;80.80;;;;;;5101835;28;20261;-68
2021/04/21 00:34:33;;;;;;;3.47;2.93;;;8.90;81.20;;;;;;5097285;28;20239;-70
2021/04/21 00:37:00;;;;;;;3.37;3.17;;;8.90;81.30;;;;;;5105357;28;20674;-69
2021/04/21 00:39:27;;;;;;;3.90;3.70;;;8.90;81.20;;;;;;5093282;28;20178;-70
2021/04/21 00:42:14;;;;;;;5.13;3.40;;;8.90;81.30;;;;;;5101925;28;20182;-69
2021/04/21 00:44:50;;;;;;;3.93;3.60;;;8.90;81.10;;;;;;5100278;28;20188;-69
2021/04/21 00:47:23;;;;;;;3.50;3.20;;;8.90;81.10;;;;;;5097208;28;21003;-70
2021/04/21 00:50:01;;;;;;;2.90;2.70;;;8.90;80.90;;;;;;5100860;28;20238;-69
2021/04/21 00:52:46;;;;;;;3.97;3.23;;;8.90;81.10;;;;;;5100218;28;21383;-69
2021/04/21 00:55:17;;;;;;;3.07;2.83;;;8.90;81.10;;;;;;5098372;28;20244;-69
2021/04/21 00:57:54;;;;;;;3.83;3.53;;;8.90;80.90;;;;;;5099503;28;20189;-70
2021/04/21 01:00:46;;;;;;;3.20;3.00;;;9.00;81.20;;;;;;5098569;28;20666;-69
2021/04/21 01:03:21;;;;;;;3.97;3.67;;;9.00;81.20;;;;;;5092565;28;20222;-69
2021/04/21 01:05:52;;;;;;;3.20;3.00;;;9.00;80.90;;;;;;5100533;28;20253;-69
2021/04/21 01:08:23;;;;;;;4.20;3.83;;;9.00;81.40;;;;;;5098465;28;20633;-70
2021/04/21 01:11:09;;;;;;;4.20;3.90;;;9.00;81.60;;;;;;5099235;28;20188;-69
2021/04/21 01:13:58;;;;;;;3.97;3.67;;;8.90;81.40;;;;;;5098110;28;20564;-69
2021/04/21 01:16:28;;;;;;;5.13;4.60;;;8.90;81.60;;;;;;5100371;28;20272;-69
2021/04/21 01:18:58;;;;;;;7.23;5.20;;;9.00;82.00;;;;;;5098566;28;20334;-69
2021/04/21 01:21:45;;;;;;;6.43;4.73;;;9.00;82.10;;;;;;5096614;28;20262;-69
2021/04/21 01:24:19;;;;;;;7.30;4.43;;;8.90;82.00;;;;;;5097478;28;20226;-69
2021/04/21 01:26:53;;;;;;;5.80;4.47;;;8.90;82.10;;;;;;5112465;28;20230;-69
2021/04/21 01:29:30;;;;;;;5.00;4.33;;;8.90;82.10;;;;;;5099195;28;20638;-69
2021/04/21 01:31:58;;;;;;;4.30;4.00;;;8.80;82.10;;;;;;5103164;28;20700;-69
2021/04/21 01:34:28;;;;;;;5.20;4.53;;;8.80;82.30;;;;;;5091319;28;20217;-69
2021/04/21 01:36:57;;;;;;;5.67;4.77;;;8.80;82.20;;;;;;5096580;28;20185;-69
2021/04/21 01:39:24;;;;;;;4.33;4.00;;;8.70;82.00;;;;;;5093362;28;20198;-69
2021/04/21 01:41:55;;;;;;;4.67;4.27;;;8.70;82.20;;;;;;5100410;28;20238;-69
2021/04/21 01:44:32;;;;;;;4.47;4.07;;;8.70;82.40;;;;;;5097620;28;20181;-69
2021/04/21 01:47:11;;;;;;;5.03;4.63;;;8.70;82.10;;;;;;5101093;28;20201;-70
2021/04/21 01:49:36;;;;;;;5.10;4.60;;;8.60;82.70;;;;;;5098548;28;20186;-68
2021/04/21 01:52:22;;;;;;;5.03;4.63;;;8.60;82.90;;;;;;5095819;28;20683;-68
2021/04/21 01:54:51;;;;;;;5.83;5.17;;;8.60;83.00;;;;;;5096665;28;20189;-68
2021/04/21 01:57:43;;;;;;;4.67;4.13;;;8.60;83.10;;;;;;5097845;28;20185;-69
2021/04/21 02:00:26;;;;;;;6.87;4.60;;;8.60;83.20;;;;;;5096999;28;20201;-69
2021/04/21 02:03:04;;;;;;;4.73;4.27;;;8.60;83.60;;;;;;5100607;28;20186;-68
2021/04/21 02:05:42;;;;;;;4.20;3.90;;;8.60;83.40;;;;;;5097207;28;20272;-68
2021/04/21 02:08:31;;;;;;;4.17;3.77;;;8.60;83.40;;;;;;5100410;28;20678;-68
2021/04/21 02:11:16;;;;;;;5.17;3.80;;;8.60;83.40;;;;;;5096756;28;20186;-69
2021/04/21 02:13:51;;;;;;;5.07;3.87;;;8.60;83.60;;;;;;5100397;28;20189;-68
2021/04/21 02:16:16;;;;;;;4.70;3.63;;;8.60;83.70;;;;;;5100110;28;20193;-69
2021/04/21 02:19:01;;;;;;;3.53;3.23;;;8.60;83.80;;;;;;5102219;28;20559;-69
2021/04/21 02:22:02;;;;;;;3.47;3.03;;;8.60;83.60;;;;;;5100896;28;20265;-68
2021/04/21 02:24:47;;;;;;;9.73;3.10;;;8.60;83.90;;;;;;5018978;28;20242;-69
2021/04/21 02:27:27;;;;;;;3.47;3.27;;;8.60;83.90;;;;;;5017614;28;20649;-68
2021/04/21 02:30:05;;;;;;;3.30;2.97;;;8.60;84.00;;;;;;5020616;28;20196;-69
2021/04/21 02:32:49;;;;;;;3.10;2.90;;;8.70;83.80;;;;;;5019872;28;20188;-69
2021/04/21 02:35:26;;;;;;;3.77;3.33;;;8.60;83.60;;;;;;5018320;28;20185;-69
2021/04/21 02:38:04;;;;;;;4.03;3.70;;;8.70;83.40;;;;;;5020055;28;20192;-68
2021/04/21 02:40:54;;;;;;;3.77;3.47;;;8.70;83.20;;;;;;5003365;28;20185;-70
2021/04/21 02:43:47;;;;;;;3.33;3.07;;;8.70;83.30;;;;;;5017276;28;20185;-69
2021/04/21 02:46:37;;;;;;;3.40;3.20;;;8.70;83.60;;;;;;5020716;28;20192;-70
2021/04/21 02:49:21;;;;;;;3.10;2.90;;;8.70;83.30;;;;;;5019215;28;20618;-69
2021/04/21 02:52:01;;;;;;;3.33;3.13;;;8.70;83.30;;;;;;5019750;28;20200;-69
2021/04/21 02:55:07;;;;;;;2.40;2.30;;;8.70;83.20;;;;;;5016576;28;20184;-69
2021/04/21 02:57:54;;;;;;;3.20;3.00;;;8.70;83.00;;;;;;4984642;28;20197;-69
2021/04/21 03:00:28;;;;;;;4.03;3.17;;;8.80;83.10;;;;;;5047586;28;20186;-70
2021/04/21 03:03:06;;;;;;;5.37;3.03;;;8.80;83.00;;;;;;5051209;28;20245;-67
2021/04/21 03:05:34;;;;;;;2.30;2.20;;;8.80;82.90;;;;;;5050763;28;20192;-69
2021/04/21 03:08:09;;;;;;;5.27;3.10;;;8.80;82.80;;;;;;5048377;28;20243;-69
2021/04/21 03:10:41;;;;;;;3.27;3.07;;;8.80;82.80;;;;;;5048082;28;20266;-68
2021/04/21 03:13:15;;;;;;;2.70;2.60;;;8.80;82.90;;;;;;5047516;28;20210;-69
2021/04/21 03:15:49;;;;;;;3.17;2.87;;;8.80;83.00;;;;;;5046906;28;20199;-69
2021/04/21 03:18:19;;;;;;;3.17;2.87;;;8.80;82.80;;;;;;5051755;28;20254;-69
2021/04/21 03:20:54;;;;;;;3.30;3.10;;;8.80;82.80;;;;;;5049277;28;20919;-69
2021/04/21 03:23:21;;;;;;;2.83;2.73;;;8.80;82.70;;;;;;5049720;28;20293;-69
2021/04/21 03:25:52;;;;;;;2.97;2.87;;;8.80;82.80;;;;;;5049961;28;20187;-69
2021/04/21 03:28:21;;;;;;;3.20;3.00;;;8.80;82.90;;;;;;5053136;28;20334;-69
2021/04/21 03:30:57;;;;;;;7.60;3.67;;;8.80;83.00;;;;;;5047952;28;20175;-69
2021/04/21 03:33:29;;;;;;;2.93;2.73;;;8.80;83.10;;;;;;5059796;28;20193;-69
2021/04/21 03:35:55;;;;;;;5.00;3.30;;;8.80;83.30;;;;;;5096999;28;20174;-69
2021/04/21 03:38:21;;;;;;;3.20;3.00;;;8.80;83.30;;;;;;5105132;28;20782;-69
2021/04/21 03:40:48;;;;;;;7.37;2.63;;;8.80;83.40;;;;;;5098843;28;20189;-70
2021/04/21 03:43:15;;;;;;;2.70;2.57;;;8.80;83.20;;;;;;5098750;28;20710;-69
2021/04/21 03:45:46;;;;;;;3.40;3.20;;;8.80;83.60;;;;;;5095764;28;20231;-69
2021/04/21 03:48:14;;;;;;;3.07;2.87;;;8.70;83.70;;;;;;5097448;28;20210;-69
2021/04/21 03:50:40;;;;;;;3.40;3.20;;;8.70;83.80;;;;;;5090438;28;20259;-68
2021/04/21 03:53:09;;;;;;;2.50;2.40;;;8.70;83.90;;;;;;5097472;28;20182;-69
2021/04/21 03:55:36;;;;;;;3.43;2.60;;;8.70;84.20;;;;;;5090625;28;20191;-68
2021/04/21 03:58:16;;;;;;;4.53;3.03;;;8.70;84.10;;;;;;5095443;28;20192;-69
2021/04/21 04:00:43;;;;;;;2.90;2.80;;;8.70;84.20;;;;;;5096324;28;20190;-69
2021/04/21 04:03:30;;;;;;;3.50;3.20;;;8.70;84.10;;;;;;5095259;28;20231;-68
2021/04/21 04:06:12;;;;;;;2.90;2.80;;;8.70;84.00;;;;;;5098539;28;20189;-69
2021/04/21 04:08:51;;;;;;;3.37;3.13;;;8.70;83.90;;;;;;5103504;28;20297;-69
2021/04/21 04:11:24;;;;;;;2.63;2.53;;;8.80;83.90;;;;;;5083897;28;20739;-69
2021/04/21 04:13:56;;;;;;;4.27;3.50;;;8.80;84.00;;;;;;5098198;28;20181;-70
2021/04/21 04:16:24;;;;;;;2.90;2.70;;;8.80;83.80;;;;;;5094563;28;20235;-69
2021/04/21 04:18:53;;;;;;;3.70;3.40;;;8.80;83.90;;;;;;5098357;28;20185;-68
2021/04/21 04:21:20;;;;;;;3.57;3.27;;;8.80;84.30;;;;;;5092329;28;20177;-69
2021/04/21 04:23:48;;;;;;;3.80;3.50;;;8.90;84.30;;;;;;5095346;28;20294;-68
2021/04/21 04:26:16;;;;;;;5.30;3.43;;;8.80;84.50;;;;;;5094460;28;20178;-68
2021/04/21 04:28:42;;;;;;;4.30;3.20;;;8.90;84.30;;;;;;5090854;28;20669;-68
2021/04/21 04:31:08;;;;;;;3.53;3.33;;;8.90;84.10;;;;;;5093910;28;20225;-69
2021/04/21 04:33:37;;;;;;;5.37;2.90;;;8.90;84.20;;;;;;5097907;28;20202;-68
2021/04/21 04:36:03;;;;;;;4.13;3.77;;;9.00;84.20;;;;;;5093910;28;21482;-69
2021/04/21 04:38:29;;;;;;;3.77;3.57;;;9.00;84.20;;;;;;5096169;28;20190;-68
2021/04/21 04:40:55;;;;;;;5.43;3.93;;;9.10;84.40;;;;;;5098259;28;20199;-69
2021/04/21 04:43:23;;;;;;;3.63;3.43;;;9.10;84.40;;;;;;5096597;28;20663;-70
2021/04/21 04:45:55;;;;;;;3.93;3.70;;;9.20;84.30;;;;;;5094690;28;20174;-69
2021/04/21 04:48:28;;;;;;;5.47;4.27;;;9.20;84.20;;;;;;5094414;28;21198;-69
2021/04/21 04:50:57;;;;;;;3.80;3.50;;;9.20;84.20;;;;;;5093731;28;20209;-70
2021/04/21 04:53:24;;;;;;;4.63;4.10;;;9.30;84.30;;;;;;5096646;28;20174;-69
2021/04/21 04:55:50;;;;;;;3.63;3.40;;;9.30;84.10;;;;;;5089973;28;20229;-70
2021/04/21 04:58:23;;;;;;;4.67;3.53;;;9.30;84.20;;;;;;5091717;28;20189;-70
2021/04/21 05:00:49;;;;;;;6.27;3.60;;;9.30;84.10;;;;;;5099029;28;20189;-70
2021/04/21 05:03:27;;;;;;;4.37;3.70;;;9.40;84.20;;;;;;5098217;28;20302;-70
2021/04/21 05:05:58;;;;;;;3.97;3.43;;;9.40;83.60;;;;;;5096135;28;20177;-70
2021/04/21 05:08:28;;;;;;;4.17;3.83;;;9.50;83.50;;;;;;5091886;28;20299;-70
2021/04/21 05:11:05;;;;;;;4.00;3.70;;;9.60;83.40;;;;;;5100209;28;20244;-69
2021/04/21 05:14:01;;;;;;;4.50;4.10;;;9.60;83.20;;;;;;5098828;28;20193;-70
2021/04/21 05:16:27;;;;;;;4.57;4.23;;;9.70;83.40;;;;;;5012207;28;20203;-71
2021/04/21 05:19:10;;;;;;;4.80;3.80;;;9.80;83.30;;;;;;5019085;28;20184;-71
2021/04/21 05:22:12;;;;;;;5.07;4.23;;;9.90;83.20;;;;;;5014248;28;20266;-70
2021/04/21 05:25:14;;;;;;;4.47;3.67;;;10.00;82.80;;;;;;5010631;28;20199;-66
2021/04/21 05:27:45;;;;;;;4.20;3.90;;;10.10;82.60;;;;;;5015455;28;20230;-68
2021/04/21 05:30:44;;;;;;;4.67;4.20;;;10.10;82.40;;;;;;5017843;28;20191;-70
2021/04/21 05:33:28;;;;;;;5.07;4.63;;;10.20;82.00;;;;;;5016183;28;20251;-68
2021/04/21 05:36:32;;;;;;;5.30;4.73;;;10.20;82.30;;;;;;5013698;28;20187;-69
2021/04/21 05:39:09;;;;;;;3.97;3.60;;;10.30;82.30;;;;;;4931359;29;20190;-68
2021/04/21 05:41:59;;;;;;;4.72;4.32;;;10.40;81.80;;;;;;4931925;29;20307;-69
2021/04/21 05:45:04;;;;;;;4.28;3.88;;;10.40;81.20;;;;;;4935793;28;20664;-68
2021/04/21 05:48:23;;;;;;;10.37;4.10;;;10.50;81.00;;;;;;4858541;29;20656;-70
2021/04/21 05:51:12;;;;;;;7.07;3.70;;;10.60;81.00;;;;;;4802376;29;20284;-69
2021/04/21 05:53:44;;;;;;;4.80;3.67;;;10.60;80.70;;;;;;4834093;29;20303;-68
2021/04/21 05:56:25;;;;;;;4.35;3.88;;;10.70;80.60;;;;;;4846204;29;20186;-68
2021/04/21 05:59:22;;;;;;;4.03;3.63;;;10.70;80.40;;;;;;4847143;29;20202;-68
2021/04/21 06:01:49;;;;;;;3.45;3.20;;;10.80;80.10;;;;;;4830291;29;20209;-68
2021/04/21 06:04:17;;;;;;;3.13;2.92;;;10.80;79.20;;;;;;4829404;29;20500;-70
2021/04/21 06:06:43;;;;;;;3.90;3.55;;;10.70;79.00;;;;;;4829018;29;20259;-68
2021/04/21 06:09:10;;;;;;;10.93;3.67;;;10.70;79.10;;;;;;4831696;29;20202;-67
2021/04/21 06:11:37;;;;;;;4.15;3.58;;;10.60;79.30;;;;;;4831698;29;20293;-67
2021/04/21 06:14:07;;;;;;;3.67;3.38;;;10.60;79.30;;;;;;4901393;29;20188;-67
2021/04/21 06:16:34;;;;;;;3.60;3.42;;;10.60;79.60;;;;;;4905079;29;20738;-67
2021/04/21 06:19:05;;;;;;;3.85;3.65;;;10.60;79.60;;;;;;4905952;29;20200;-67
2021/04/21 06:21:37;;;;;;;3.90;3.60;;;10.60;79.70;;;;;;4904426;29;20641;-67
2021/04/21 06:24:21;;;;;;;5.13;3.60;;;10.70;79.70;;;;;;4924321;28;20284;-67
2021/04/21 06:26:47;;;;;;;3.95;3.65;;;10.80;79.70;;;;;;4979573;28;20197;-67
2021/04/21 06:29:13;;;;;;;6.80;4.30;;;10.80;79.50;;;;;;4980785;28;20297;-67
2021/04/21 06:31:43;;;;;;;4.40;4.10;;;11.00;79.70;;;;;;4980463;28;20670;-66
2021/04/21 06:34:11;;;;;;;4.53;4.13;;;11.10;79.60;;;;;;4981620;28;20230;-67
2021/04/21 06:36:46;;;;;;;5.28;4.10;;;11.30;79.10;;;;;;4989635;28;22236;-67
2021/04/21 06:39:16;;;;;;;5.28;4.72;;;11.50;78.50;;;;;;5065485;28;20659;-67
2021/04/21 06:41:42;;;;;;;8.00;5.03;;;11.60;77.60;;;;;;5103627;28;20663;-68
2021/04/21 06:44:08;;;;;;;9.68;5.07;;;11.70;77.30;;;;;;5094759;28;20234;-67
2021/04/21 06:46:34;;;;;;;4.70;4.38;;;11.80;77.00;;;;;;5084476;28;20209;-67
2021/04/21 06:49:03;;;;;;;4.25;3.95;;;11.90;77.20;;;;;;5096917;28;20205;-67
2021/04/21 06:51:31;;;;;;;4.43;4.13;;;12.00;77.20;;;;;;5102012;28;20186;-67
2021/04/21 06:53:58;;;;;;;6.53;4.10;;;12.10;76.60;;;;;;5095595;28;20260;-67
2021/04/21 06:56:30;;;;;;;5.05;4.40;;;12.20;76.30;;;;;;5101867;28;20193;-68
2021/04/21 06:58:57;;;;;;;4.70;4.38;;;12.30;76.40;;;;;;5097071;28;20270;-67
2021/04/21 07:01:27;;;;;;;7.20;4.38;;;12.40;75.80;;;;;;5101697;28;20185;-67
2021/04/21 07:04:13;;;;;;;4.35;3.97;;;12.50;76.20;;;;;;5099339;28;20231;-67
2021/04/21 07:06:41;;;;;;;3.75;3.45;;;12.60;76.10;;;;;;5098464;28;20182;-66
2021/04/21 07:09:18;;;;;;;4.78;4.38;;;12.70;75.50;;;;;;5100278;28;20295;-68
2021/04/21 07:11:45;;;;;;;7.18;3.33;;;12.90;75.50;;;;;;5098083;28;20198;-68
2021/04/21 07:14:14;;;;;;;5.35;3.40;;;13.00;74.90;;;;;;5101566;28;20591;-67
2021/04/21 07:16:40;;;;;;;5.40;3.70;;;13.10;74.60;;;;;;5097761;28;20254;-67
2021/04/21 07:19:12;;;;;;;6.55;3.28;;;13.20;74.50;;;;;;5102344;28;20182;-67
2021/04/21 07:21:40;;;;;;;6.78;3.83;;;13.40;74.10;;;;;;5076700;28;20185;-68
2021/04/21 07:24:10;;;;;;;4.20;3.85;;;13.50;74.10;;;;;;5101743;28;20589;-68
2021/04/21 07:26:44;;;;;;;5.93;4.50;;;13.60;74.10;;;;;;5098344;28;20174;-69
2021/04/21 07:29:21;;;;;;;4.45;4.05;;;13.70;73.40;;;;;;5099133;28;20212;-68
2021/04/21 07:31:47;;;;;;;3.80;3.60;;;13.80;73.50;;;;;;5096196;28;20201;-68
2021/04/21 07:34:14;;;;;;;3.95;3.75;;;13.90;73.00;;;;;;5079074;28;20268;-67
2021/04/21 07:36:45;;;;;;;3.05;2.85;;;14.00;72.10;;;;;;5098412;28;20215;-68
2021/04/21 07:39:11;;;;;;;3.10;2.90;;;14.00;69.60;;;;;;5096969;28;20180;-68
2021/04/21 07:41:41;;;;;;;2.53;2.42;;;14.10;70.60;;;;;;5084543;28;20208;-68
2021/04/21 07:44:24;;;;;;;3.50;3.28;;;14.20;71.30;;;;;;5097739;28;20190;-68
2021/04/21 07:46:54;;;;;;;3.17;2.90;;;14.30;70.90;;;;;;5099589;28;20639;-68
2021/04/21 07:49:31;;;;;;;4.25;2.95;;;14.50;70.90;;;;;;5095758;28;20190;-68
2021/04/21 07:51:57;;;;;;;3.80;3.50;;;14.60;70.20;;;;;;5098878;28;20269;-68
2021/04/21 07:54:25;;;;;;;4.28;3.00;;;14.70;69.30;;;;;;5094204;28;20783;-68
2021/04/21 07:57:15;;;;;;;3.47;2.85;;;14.70;69.40;;;;;;5097447;28;20221;-68
2021/04/21 07:59:43;;;;;;;3.05;2.72;;;14.80;68.90;;;;;;5098700;28;20561;-68
2021/04/21 08:02:16;;;;;;;2.03;2.03;;;14.90;68.90;;;;;;5095262;28;20253;-68
2021/04/21 08:04:56;;;;;;;2.97;2.78;;;14.80;66.00;;;;;;5098475;28;20182;-68
2021/04/21 08:07:41;;;;;;;2.92;2.67;;;14.70;66.30;;;;;;5094925;28;20205;-68
2021/04/21 08:10:24;;;;;;;4.10;3.42;;;14.50;67.20;;;;;;5099438;28;20248;-67
2021/04/21 08:12:52;;;;;;;2.63;2.42;;;14.40;67.40;;;;;;5097059;28;20186;-68
2021/04/21 08:15:20;;;;;;;3.63;3.33;;;14.40;67.60;;;;;;5098665;28;20177;-67
2021/04/21 08:18:00;;;;;;;3.42;3.20;;;14.40;68.10;;;;;;5097616;28;20367;-69
2021/04/21 08:20:41;;;;;;;3.13;3.03;;;14.40;68.10;;;;;;5096893;28;20208;-69
2021/04/21 08:23:09;;;;;;;3.17;3.03;;;14.50;68.80;;;;;;5095084;28;20178;-69
2021/04/21 08:25:35;;;;;;;3.35;3.03;;;14.60;68.40;;;;;;5099953;28;20189;-68
2021/04/21 08:28:02;;;;;;;3.03;2.85;;;14.80;67.90;;;;;;5094808;28;20637;-68
2021/04/21 08:30:30;;;;;;;3.40;3.20;;;15.00;68.10;;;;;;5100623;28;20729;-68
2021/04/21 08:32:56;;;;;;;2.80;2.55;;;15.20;67.20;;;;;;5094400;28;20174;-68
2021/04/21 08:35:22;;;;;;;2.42;2.33;;;15.40;65.60;;;;;;5098144;28;20189;-68
2021/04/21 08:37:47;;;;;;;2.58;2.38;;;15.60;65.90;;;;;;5093667;28;20183;-68
2021/04/21 08:40:16;;;;;;;2.38;2.30;;;15.80;65.60;;;;;;5098265;28;20219;-68
2021/04/21 08:42:46;;;;;;;1.95;1.90;;;15.90;64.10;;;;;;5093996;28;20705;-68
2021/04/21 08:45:12;;;;;;;2.40;2.30;;;15.90;63.30;;;;;;5099548;28;20221;-68
2021/04/21 08:47:41;;;;;;;4.00;2.17;;;15.90;62.90;;;;;;5095643;28;20218;-68
2021/04/21 08:50:11;;;;;;;7.15;2.28;;;15.80;63.30;;;;;;5099888;28;20734;-68
2021/04/21 08:52:56;;;;;;;1.80;1.80;;;15.80;63.60;;;;;;5095192;28;20182;-68
2021/04/21 08:55:24;;;;;;;2.92;2.00;;;15.80;62.70;;;;;;5096118;28;20234;-69
2021/04/21 08:57:49;;;;;;;1.83;1.73;;;15.90;62.50;;;;;;5098214;28;20567;-68
2021/04/21 09:00:20;;;;;;;1.88;1.77;;;15.80;61.40;;;;;;5096667;28;20177;-68
2021/04/21 09:02:47;;;;;;;4.03;1.80;;;15.90;61.80;;;;;;5097908;28;20181;-68
2021/04/21 09:05:14;;;;;;;2.72;1.75;;;16.00;61.10;;;;;;5097356;28;20864;-68
2021/04/21 09:07:40;;;;;;;1.70;1.70;;;16.20;61.00;;;;;;5097284;28;20229;-68
2021/04/21 09:10:11;;;;;;;1.67;1.58;;;16.60;60.90;;;;;;5095122;28;20188;-68
2021/04/21 09:12:37;;;;;;;1.75;1.65;;;17.10;60.20;;;;;;5097427;28;20203;-68
2021/04/21 09:15:05;;;;;;;1.85;1.85;;;17.50;58.10;;;;;;5097126;28;20706;-68
2021/04/21 09:17:31;;;;;;;2.05;1.95;;;17.80;58.00;;;;;;5098946;28;20567;-69
2021/04/21 09:19:58;;;;;;;1.50;1.50;;;18.00;57.70;;;;;;5097710;28;20190;-68
2021/04/21 09:22:25;;;;;;;1.73;1.67;;;18.00;57.80;;;;;;5095454;28;20174;-68
2021/04/21 09:24:59;;;;;;;1.50;1.50;;;18.00;56.80;;;;;;5092914;28;20276;-68
2021/04/21 09:27:36;;;;;;;3.03;2.92;;;17.80;57.50;;;;;;5091397;28;20353;-68
2021/04/21 09:30:08;;;;;;;2.30;2.20;;;17.60;57.60;;;;;;5095345;28;20189;-68
2021/04/21 09:32:44;;;;;;;1.70;1.70;;;17.00;57.70;;;;;;5093737;28;20178;-68
2021/04/21 09:35:15;;;;;;;3.72;1.38;;;16.50;57.30;;;;;;5096932;28;20241;-71
2021/04/21 09:37:41;;;;;;;1.98;1.88;;;16.20;58.70;;;;;;5096771;28;20181;-68
2021/04/21 09:40:09;;;;;;;2.28;2.13;;;16.00;59.80;;;;;;5096680;28;20173;-68
2021/04/21 09:42:35;;;;;;;2.35;2.25;;;16.00;61.20;;;;;;5094658;28;20186;-68
2021/04/21 09:45:00;;;;;;;2.63;2.63;;;15.80;61.90;;;;;;5100877;28;20238;-68
2021/04/21 09:47:26;;;;;;;2.30;2.20;;;15.80;62.30;;;;;;5102620;28;20213;-68
2021/04/21 09:49:58;;;;;;;1.50;1.50;;;15.50;62.10;;;;;;5100300;28;20194;-69
2021/04/21 09:52:23;;;;;;;0.95;0.90;;;15.10;62.50;;;;;;5099744;28;20170;-68
2021/04/21 09:57:38;;;;;;;1.00;1.00;;;13.90;64.00;;;;;;5099960;28;20196;-67
2021/04/21 10:00:08;;;;;;;0.80;0.80;;;13.50;65.30;;;;;;5095984;28;20244;-67
2021/04/21 10:02:36;;;;;;;1.40;1.20;;;13.20;66.30;;;;;;5097948;28;20201;-69
2021/04/21 10:05:33;;;;;;;0.82;0.82;;;12.80;67.60;;;;;;5100778;28;20178;-69
2021/04/21 10:08:14;;;;;;;0.90;0.90;;;12.70;69.60;;;;;;5100049;28;20296;-68
2021/04/21 10:10:41;;;;;;;1.02;0.63;;;12.30;71.10;;;;;;5078776;28;20774;-68
2021/04/21 10:13:17;;;;;;;1.02;1.02;;;12.10;72.20;;;;;;5095631;28;20204;-69
2021/04/21 10:15:43;;;;;;;0.60;0.60;;;11.90;73.60;;;;;;5102331;28;20177;-68
2021/04/21 10:18:12;;;;;;;1.10;0.63;;;11.90;73.50;;;;;;5101387;28;20208;-67
2021/04/21 10:20:38;;;;;;;0.57;0.57;;;12.00;74.30;;;;;;5101298;28;20185;-69
2021/04/21 10:23:05;;;;;;;0.93;0.93;;;12.10;73.80;;;;;;5098591;28;20265;-68
2021/04/21 10:25:31;;;;;;;1.10;1.10;;;12.40;74.90;;;;;;5098164;28;20624;-67
2021/04/21 10:28:15;;;;;;;1.80;1.70;;;12.70;73.50;;;;;;5098134;28;20222;-70
2021/04/21 10:30:41;;;;;;;1.20;1.20;;;12.90;73.90;;;;;;5100653;28;20200;-67
2021/04/21 10:33:09;;;;;;;0.95;0.95;;;13.50;74.70;;;;;;5103553;28;20900;-68
2021/04/21 10:35:35;;;;;;;0.95;0.95;;;14.40;71.90;;;;;;5092494;28;21838;-68
2021/04/21 10:38:00;;;;;;;1.20;1.20;;;15.60;70.20;;;;;;5095740;28;20725;-69
2021/04/21 10:40:31;;;;;;;0.70;0.68;;;17.00;68.00;;;;;;5091791;28;20181;-69
2021/04/21 10:43:00;;;;;;;0.52;0.52;;;18.50;64.00;;;;;;5099196;28;20204;-68
2021/04/21 10:45:28;;;;;;;0.70;0.70;;;19.70;59.90;;;;;;5096192;28;20177;-68
2021/04/21 10:47:56;;;;;;;0.60;0.60;;;20.80;57.40;;;;;;5102267;28;20296;-69
2021/04/21 10:50:42;;;;;;;1.00;0.98;;;22.00;55.20;;;;;;5101387;28;20183;-67
2021/04/21 10:53:28;;;;;;;1.20;1.10;;;22.50;54.20;;;;;;5103003;28;20539;-67
2021/04/21 10:55:55;;;;;;;1.38;1.25;;;22.20;52.60;;;;;;5099121;28;20189;-68
2021/04/21 10:58:20;;;;;;;0.80;0.80;;;22.00;53.60;;;;;;5098904;28;20212;-68
2021/04/21 11:00:47;;;;;;;1.38;1.00;;;21.70;54.30;;;;;;5101021;28;20182;-68
2021/04/21 11:03:25;;;;;;;0.85;0.85;;;21.00;53.70;;;;;;5098847;28;20185;-67
2021/04/21 11:05:57;;;;;;;0.57;0.57;;;20.00;54.30;;;;;;5098660;28;20268;-70
2021/04/21 11:08:28;;;;;;;0.63;0.63;;;18.90;55.90;;;;;;5098192;28;20240;-69
2021/04/21 11:10:57;;;;;;;0.70;0.70;;;17.90;57.40;;;;;;5094506;28;20250;-68
2021/04/21 11:13:35;;;;;;;0.70;0.70;;;17.20;59.20;;;;;;5101287;28;20194;-68
2021/04/21 11:16:06;;;;;;;0.68;0.68;;;16.50;59.40;;;;;;5077644;28;20833;-68
2021/04/21 11:18:38;;;;;;;0.60;0.60;;;15.70;61.30;;;;;;5096942;28;20182;-67
2021/04/21 11:21:09;;;;;;;0.65;0.65;;;15.00;62.00;;;;;;5096580;28;20664;-68
2021/04/21 11:24:00;;;;;;;0.80;0.80;;;14.40;64.40;;;;;;5073376;28;20268;-68
2021/04/21 11:26:27;;;;;;;0.68;0.68;;;14.40;64.90;;;;;;5099795;28;20185;-69
2021/04/21 11:29:19;;;;;;;1.05;0.95;;;14.50;65.50;;;;;;5097476;28;20701;-67
2021/04/21 11:34:22;;;;;;;0.40;0.40;;;15.30;61.90;;;;;;5097204;28;20662;-68
2021/04/21 11:36:54;;;;;;;0.40;0.40;;;16.30;60.90;;;;;;5097644;28;20173;-67
2021/04/21 11:42:21;;;;;;;0.82;0.57;;;18.80;55.20;;;;;;5093453;28;20762;-67
2021/04/21 11:44:49;;;;;;;0.70;0.70;;;19.60;54.00;;;;;;5095980;28;20202;-69
2021/04/21 11:47:53;;;;;;;0.63;0.63;;;20.10;52.40;;;;;;5094445;28;20197;-66
2021/04/21 11:50:26;;;;;;;0.50;0.50;;;20.60;51.90;;;;;;5094872;28;20592;-68
2021/04/21 11:53:03;;;;;;;0.45;0.45;;;21.30;51.90;;;;;;5097152;28;20946;-68
2021/04/21 11:55:34;;;;;;;0.80;0.65;;;22.00;52.50;;;;;;5090625;28;20189;-68
2021/04/21 11:58:07;;;;;;;0.57;0.57;;;22.60;49.70;;;;;;5090966;28;20442;-68
2021/04/21 12:00:41;;;;;;;0.70;0.70;;;23.00;49.70;;;;;;5091183;28;20185;-68
2021/04/21 12:03:18;;;;;;;0.73;0.73;;;23.60;49.20;;;;;;5097249;28;20185;-68
2021/04/21 12:05:45;;;;;;;0.82;0.82;;;23.90;49.90;;;;;;5097430;28;20181;-68
2021/04/21 12:08:12;;;;;;;1.00;1.00;;;24.50;49.30;;;;;;5090944;28;20296;-69
2021/04/21 12:10:41;;;;;;;0.90;0.90;;;25.10;48.90;;;;;;5091417;28;22354;-69
2021/04/21 12:13:24;;;;;;;1.13;1.02;;;25.20;49.20;;;;;;5085712;28;20204;-69
2021/04/21 12:15:58;;;;;;;1.02;1.02;;;25.30;47.20;;;;;;5092257;28;20249;-69
2021/04/21 12:18:31;;;;;;;0.85;0.85;;;25.60;48.30;;;;;;5085436;28;20786;-68
2021/04/21 12:20:57;;;;;;;0.88;0.88;;;26.20;48.60;;;;;;5088532;28;20190;-67
2021/04/21 12:23:27;;;;;;;0.75;0.75;;;26.00;46.30;;;;;;5092509;28;20574;-68
2021/04/21 12:25:52;;;;;;;0.95;0.93;;;25.30;47.20;;;;;;5096158;28;20261;-69
2021/04/21 12:28:18;;;;;;;0.85;0.85;;;25.20;47.30;;;;;;5094981;28;20288;-68
2021/04/21 12:30:52;;;;;;;0.80;0.80;;;25.50;46.90;;;;;;5096043;28;20558;-70
2021/04/21 12:33:20;;;;;;;1.17;1.17;;;25.80;46.70;;;;;;5094157;28;20181;-69
2021/04/21 12:35:45;;;;;;;1.10;1.10;;;25.70;46.70;;;;;;5091216;28;20181;-69
2021/04/21 12:38:11;;;;;;;1.25;1.25;;;25.10;48.10;;;;;;5092099;28;20186;-69
2021/04/21 12:40:37;;;;;;;1.20;1.20;;;23.90;48.50;;;;;;5091917;28;20255;-70
2021/04/21 12:43:11;;;;;;;2.45;1.70;;;22.80;51.60;;;;;;5097956;28;20208;-68
2021/04/21 12:45:39;;;;;;;1.40;1.30;;;22.00;50.90;;;;;;5093192;28;20177;-68
2021/04/21 12:48:27;;;;;;;1.20;1.20;;;21.70;52.40;;;;;;5097808;28;20296;-68
2021/04/21 12:50:57;;;;;;;1.08;1.08;;;21.70;51.50;;;;;;5098671;28;20189;-68
2021/04/21 12:53:31;;;;;;;0.93;0.93;;;21.70;52.80;;;;;;5096831;28;20189;-69
2021/04/21 12:56:08;;;;;;;1.10;1.10;;;21.80;52.30;;;;;;5097131;28;20857;-69
2021/04/21 12:58:38;;;;;;;1.23;1.23;;;22.60;51.50;;;;;;5094798;28;20272;-68
2021/04/21 13:01:16;;;;;;;1.08;1.08;;;23.60;49.80;;;;;;5096497;28;20204;-69
2021/04/21 13:03:55;;;;;;;0.95;0.95;;;24.50;49.20;;;;;;5090869;28;20620;-69
2021/04/21 13:06:35;;;;;;;0.90;0.90;;;25.40;46.30;;;;;;5098572;28;20193;-68
2021/04/21 13:09:07;;;;;;;1.00;1.00;;;25.60;47.00;;;;;;5100433;28;20705;-68
2021/04/21 13:11:34;;;;;;;0.88;0.88;;;25.30;46.70;;;;;;5081549;28;20193;-68
2021/04/21 13:14:00;;;;;;;2.72;1.00;;;24.60;47.40;;;;;;5101330;28;20181;-68
2021/04/21 13:16:31;;;;;;;1.20;1.20;;;23.90;46.70;;;;;;5098464;28;20249;-68
2021/04/21 13:18:57;;;;;;;2.30;1.00;;;23.90;47.40;;;;;;5097396;28;20185;-68
2021/04/21 13:21:23;;;;;;;1.25;1.15;;;23.60;45.70;;;;;;5094747;28;20253;-68
2021/04/21 13:23:58;;;;;;;1.52;1.48;;;23.20;47.70;;;;;;5102143;28;20188;-69
2021/04/21 13:26:23;;;;;;;0.90;0.90;;;22.80;49.80;;;;;;5099623;28;20173;-69
2021/04/21 13:28:53;;;;;;;0.70;0.70;;;22.00;47.60;;;;;;5096925;28;20204;-68